• Join FlightAware (Why Join?)
  • Login
  • US Flag 
01:49PM EDT


 

Airport Tracker/Info


-or-


 

Live Flight TrackerFlight Track Log ✈ CPT7773 ✈ 20-Jan-2014 ✈ KCOD - KCPR

Flight Track Log - Related Links

Times and Time Zones

All times are in EST time to prevent confusion due to time zone crossing. See the CPT7773 flight status page for this flight to view local times or setup timezone preferences in your user account.

Time Position Orientation Groundspeed Altitude Reporting Facility
EST Latitude Longitude Course Direction KTS MPH feet Rate Location/Type
08:13PM 44.5361 -108.9889 121° Southeast 87 100 6,300  Level Salt Lake Center
08:14PM 44.5372 -108.9417 88° East 118 136 7,000 780 Climbing Salt Lake Center
08:16PM 44.5358 -108.8889 92° East 126 145 7,900 780 Climbing Salt Lake Center
08:17PM 44.5319 -108.8364 96° East 131 151 8,700 720 Climbing Salt Lake Center
08:18PM 44.5078 -108.7883 125° Southeast 143 165 9,500 960 Climbing Salt Lake Center
08:19PM 44.4005 -108.7457 121° Southeast  Level FlightAware Approximate
08:19PM 44.4717 -108.7358 134° Southeast 153 176 10,700  Level Salt Lake Center
08:20PM 44.4431 -108.6908 132° Southeast 155 178 11,100 120 Climbing Salt Lake Center
08:21PM 44.4103 -108.6397 132° Southeast 163 188 11,000 -60 Descending Salt Lake Center
08:22PM 44.3742 -108.5853 133° Southeast 175 201 11,000  Level Salt Lake Center
08:23PM 44.3394 -108.5308 132° Southeast 183 211 11,100  Climbing Salt Lake Center
08:24PM 44.3047 -108.4783 133° Southeast 185 213 11,000 -60 Descending Salt Lake Center
08:25PM 44.2633 -108.4147 132° Southeast 186 214 11,000  Level Salt Lake Center
08:26PM 44.2292 -108.3600 131° Southeast 186 214 11,000  Level Salt Lake Center
08:27PM 44.1939 -108.3069 133° Southeast 186 214 11,000  Level Salt Lake Center
08:28PM 44.1594 -108.2536 132° Southeast 187 215 11,000  Level Salt Lake Center
08:29PM 44.1242 -108.2008 133° Southeast 187 215 11,100  Climbing Salt Lake Center
08:30PM 44.0897 -108.1483 132° Southeast 186 214 11,100  Level Salt Lake Center
08:31PM 44.0550 -108.0961 133° Southeast 185 213 11,100 -60 Level Salt Lake Center
08:32PM 44.0139 -108.0314 131° Southeast 186 214 11,000  Descending Salt Lake Center
08:33PM 43.9794 -107.9792 132° Southeast 185 213 11,100  Climbing Salt Lake Center
08:34PM 43.9447 -107.9250 132° Southeast 186 214 11,100  Level Salt Lake Center
08:35PM 43.9153 -107.8658 125° Southeast 186 214 11,100  Level Salt Lake Center
08:36PM 43.8861 -107.8061 124° Southeast 186 214 11,100  Level Salt Lake Center
08:37PM 43.8567 -107.7458 124° Southeast 188 216 11,100  Level Salt Lake Center
08:38PM 43.8194 -107.6764 127° Southeast 188 216 11,100  Level Salt Lake Center
08:39PM 43.7897 -107.6172 125° Southeast 188 216 11,100  Level Salt Lake Center
08:40PM 43.7597 -107.5586 125° Southeast 188 216 11,100  Level Salt Lake Center
08:41PM 43.7283 -107.4997 126° Southeast 189 217 11,100  Level Salt Lake Center
08:42PM 43.6986 -107.4392 124° Southeast 190 219 11,100  Level Salt Lake Center
08:43PM 43.6669 -107.3800 126° Southeast 191 220 11,100  Level Salt Lake Center
08:44PM 43.6367 -107.3208 125° Southeast 191 220 11,100  Level Salt Lake Center
08:45PM 43.5986 -107.2478 126° Southeast 193 222 11,100  Level Salt Lake Center
08:46PM 43.5669 -107.1869 126° Southeast 194 223 11,100  Level Salt Lake Center
08:47PM 43.5361 -107.1261 125° Southeast 194 223 11,100  Level Salt Lake Center
08:48PM 43.5039 -107.0647 126° Southeast 197 227 11,100  Level Salt Lake Center
08:49PM 43.4725 -107.0061 126° Southeast 192 221 11,100 -60 Level Salt Lake Center
08:50PM 43.4403 -106.9467 127° Southeast 194 223 11,000  Descending Salt Lake Center
08:51PM 43.4072 -106.8847 126° Southeast 191 220 11,100  Climbing Salt Lake Center
08:53PM 43.3683 -106.8236 131° Southeast 192 221 11,100 -180 Level Salt Lake Center
08:54PM 43.3228 -106.7908 152° Southeast 188 216 10,800 -480 Descending Salt Lake Center
08:55PM 43.2772 -106.7567 151° Southeast 192 221 10,200 -420 Descending Salt Lake Center
08:56PM 43.2297 -106.7142 147° Southeast 185 213 10,000 -420 Descending Salt Lake Center
08:57PM 43.1897 -106.6775 146° Southeast 184 212 9,400 -660 Descending Salt Lake Center
08:58PM 43.1433 -106.6372 148° Southeast 180 207 8,700 -660 Descending Salt Lake Center
08:59PM 43.1014 -106.6033 149° Southeast 180 207 8,100 -600 Descending Denver Center
09:00PM 43.0614 -106.5711 150° Southeast 177 204 7,500 -600 Descending Denver Center
09:01PM 43.0142 -106.5325 149° Southeast 177 204 6,900 -480 Descending Denver Center
09:02PM 42.9739 -106.4992 149° Southeast 175 201 6,600 -300 Descending Denver Center